< < Back
Terminal Aerodrome Forecast


Current Version              Previous Versions:   1  2  3  4  5  6  7  8  9  

Terminal Aerodrome Forecast

880
FTUS42 KMLB 040249 AAC
TAFMCO
TAF AMD
KMCO 040249Z 0403/0424 20004KT P6SM SCT150 BKN250
     FM040600 18003KT P6SM SCT250
     FM041400 19005KT P6SM SCT025
     FM041900 VRB04KT P6SM VCTS SCT050CB SCT100 BKN150=

Latest METAR

596
SAUS70 KWBC 040700 RRA
MTRMCO
METAR KMCO 040653Z 13003KT 10SM FEW140 OVC250 24/22 A3009 RMK AO2 SLP186
T02390222


USA.gov is the U.S. government's official web portal to all federal, state and local government web resources and services.